sensor_id;sensor_type;location;lat;lon;timestamp;P1;durP1;ratioP1;P2;durP2;ratioP2
11024;SDS011;22890;51.820;8.682;2024-03-02T00:00:27;6.77;;;5.73;;
11024;SDS011;22890;51.820;8.682;2024-03-02T00:02:54;7.43;;;5.57;;
11024;SDS011;22890;51.820;8.682;2024-03-02T00:05:21;8.60;;;6.00;;
11024;SDS011;22890;51.820;8.682;2024-03-02T00:07:55;10.43;;;6.27;;
11024;SDS011;22890;51.820;8.682;2024-03-02T00:10:26;7.53;;;5.50;;
11024;SDS011;22890;51.820;8.682;2024-03-02T00:13:03;8.73;;;5.60;;
11024;SDS011;22890;51.820;8.682;2024-03-02T00:17:56;9.17;;;6.53;;
11024;SDS011;22890;51.820;8.682;2024-03-02T00:20:25;8.43;;;6.47;;
11024;SDS011;22890;51.820;8.682;2024-03-02T00:22:59;6.87;;;5.53;;
11024;SDS011;22890;51.820;8.682;2024-03-02T00:25:36;9.53;;;5.87;;
11024;SDS011;22890;51.820;8.682;2024-03-02T00:28:11;8.73;;;5.77;;
11024;SDS011;22890;51.820;8.682;2024-03-02T00:33:27;8.40;;;5.97;;
11024;SDS011;22890;51.820;8.682;2024-03-02T00:36:00;7.77;;;5.90;;
11024;SDS011;22890;51.820;8.682;2024-03-02T00:38:29;8.83;;;6.10;;
11024;SDS011;22890;51.820;8.682;2024-03-02T00:41:06;9.03;;;5.87;;
11024;SDS011;22890;51.820;8.682;2024-03-02T00:43:41;7.53;;;5.87;;
11024;SDS011;22890;51.820;8.682;2024-03-02T00:46:15;9.60;;;6.23;;
11024;SDS011;22890;51.820;8.682;2024-03-02T00:51:27;8.17;;;6.10;;
11024;SDS011;22890;51.820;8.682;2024-03-02T00:53:58;6.87;;;5.57;;
11024;SDS011;22890;51.820;8.682;2024-03-02T00:56:31;7.37;;;5.63;;
11024;SDS011;22890;51.820;8.682;2024-03-02T00:58:58;9.33;;;6.07;;
11024;SDS011;22890;51.820;8.682;2024-03-02T01:01:25;7.70;;;6.27;;
11024;SDS011;22890;51.820;8.682;2024-03-02T01:03:52;8.87;;;6.17;;
11024;SDS011;22890;51.820;8.682;2024-03-02T01:06:19;9.53;;;6.43;;
11024;SDS011;22890;51.820;8.682;2024-03-02T01:08:48;9.20;;;5.90;;
11024;SDS011;22890;51.820;8.682;2024-03-02T01:11:18;9.70;;;6.33;;
11024;SDS011;22890;51.820;8.682;2024-03-02T01:13:45;8.03;;;5.87;;
11024;SDS011;22890;51.820;8.682;2024-03-02T01:16:12;8.67;;;6.23;;
11024;SDS011;22890;51.820;8.682;2024-03-02T01:18:39;10.10;;;6.60;;
11024;SDS011;22890;51.820;8.682;2024-03-02T01:21:07;8.40;;;6.70;;
11024;SDS011;22890;51.820;8.682;2024-03-02T01:23:33;9.53;;;6.73;;
11024;SDS011;22890;51.820;8.682;2024-03-02T01:26:00;8.93;;;6.20;;
11024;SDS011;22890;51.820;8.682;2024-03-02T01:28:27;7.40;;;5.97;;
11024;SDS011;22890;51.820;8.682;2024-03-02T01:30:54;9.17;;;6.77;;
11024;SDS011;22890;51.820;8.682;2024-03-02T01:33:20;9.20;;;6.53;;
11024;SDS011;22890;51.820;8.682;2024-03-02T01:35:47;8.83;;;6.27;;
11024;SDS011;22890;51.820;8.682;2024-03-02T01:38:14;8.23;;;6.37;;
11024;SDS011;22890;51.820;8.682;2024-03-02T01:40:41;8.80;;;6.73;;
11024;SDS011;22890;51.820;8.682;2024-03-02T01:43:10;7.27;;;5.70;;
11024;SDS011;22890;51.820;8.682;2024-03-02T01:45:37;9.20;;;6.57;;
11024;SDS011;22890;51.820;8.682;2024-03-02T01:48:05;7.87;;;6.03;;
11024;SDS011;22890;51.820;8.682;2024-03-02T01:50:33;8.17;;;5.93;;
11024;SDS011;22890;51.820;8.682;2024-03-02T01:53:00;8.17;;;6.60;;
11024;SDS011;22890;51.820;8.682;2024-03-02T01:55:29;9.53;;;6.53;;
11024;SDS011;22890;51.820;8.682;2024-03-02T01:57:56;8.87;;;6.23;;
11024;SDS011;22890;51.820;8.682;2024-03-02T02:00:24;8.97;;;6.67;;
11024;SDS011;22890;51.820;8.682;2024-03-02T02:02:53;8.27;;;6.20;;
11024;SDS011;22890;51.820;8.682;2024-03-02T02:05:20;7.43;;;5.60;;
11024;SDS011;22890;51.820;8.682;2024-03-02T02:07:47;7.57;;;6.10;;
11024;SDS011;22890;51.820;8.682;2024-03-02T02:10:14;9.80;;;6.50;;
11024;SDS011;22890;51.820;8.682;2024-03-02T02:12:41;8.13;;;5.87;;
11024;SDS011;22890;51.820;8.682;2024-03-02T02:17:54;9.80;;;6.70;;
11024;SDS011;22890;51.820;8.682;2024-03-02T02:20:22;9.57;;;6.73;;
11024;SDS011;22890;51.820;8.682;2024-03-02T02:22:57;7.93;;;6.33;;
11024;SDS011;22890;51.820;8.682;2024-03-02T02:25:31;8.50;;;6.27;;
11024;SDS011;22890;51.820;8.682;2024-03-02T02:27:58;10.30;;;6.40;;
11024;SDS011;22890;51.820;8.682;2024-03-02T02:30:26;7.90;;;6.40;;
11024;SDS011;22890;51.820;8.682;2024-03-02T02:32:58;11.93;;;7.37;;
11024;SDS011;22890;51.820;8.682;2024-03-02T02:35:25;8.57;;;6.40;;
11024;SDS011;22890;51.820;8.682;2024-03-02T02:37:52;11.13;;;6.70;;
11024;SDS011;22890;51.820;8.682;2024-03-02T02:40:20;10.07;;;7.33;;
11024;SDS011;22890;51.820;8.682;2024-03-02T02:42:47;12.13;;;6.90;;
11024;SDS011;22890;51.820;8.682;2024-03-02T02:45:14;9.60;;;7.17;;
11024;SDS011;22890;51.820;8.682;2024-03-02T02:47:42;9.27;;;6.60;;
11024;SDS011;22890;51.820;8.682;2024-03-02T02:50:09;10.07;;;7.10;;
11024;SDS011;22890;51.820;8.682;2024-03-02T02:52:37;11.07;;;7.67;;
11024;SDS011;22890;51.820;8.682;2024-03-02T02:55:07;8.53;;;6.77;;
11024;SDS011;22890;51.820;8.682;2024-03-02T02:57:35;9.77;;;7.17;;
11024;SDS011;22890;51.820;8.682;2024-03-02T03:00:05;10.23;;;8.13;;
11024;SDS011;22890;51.820;8.682;2024-03-02T03:02:37;9.90;;;7.30;;
11024;SDS011;22890;51.820;8.682;2024-03-02T03:05:05;12.00;;;8.30;;
11024;SDS011;22890;51.820;8.682;2024-03-02T03:07:32;11.63;;;7.90;;
11024;SDS011;22890;51.820;8.682;2024-03-02T03:10:00;13.47;;;8.27;;
11024;SDS011;22890;51.820;8.682;2024-03-02T03:12:30;12.70;;;8.17;;
11024;SDS011;22890;51.820;8.682;2024-03-02T03:14:57;13.17;;;8.77;;
11024;SDS011;22890;51.820;8.682;2024-03-02T03:17:24;11.50;;;7.97;;
11024;SDS011;22890;51.820;8.682;2024-03-02T03:19:51;11.53;;;8.07;;
11024;SDS011;22890;51.820;8.682;2024-03-02T03:22:17;11.03;;;7.93;;
11024;SDS011;22890;51.820;8.682;2024-03-02T03:24:45;12.83;;;8.63;;
11024;SDS011;22890;51.820;8.682;2024-03-02T03:27:11;10.97;;;7.73;;
11024;SDS011;22890;51.820;8.682;2024-03-02T03:29:38;12.50;;;9.27;;
11024;SDS011;22890;51.820;8.682;2024-03-02T03:32:05;11.77;;;8.27;;
11024;SDS011;22890;51.820;8.682;2024-03-02T03:34:33;12.53;;;8.83;;
11024;SDS011;22890;51.820;8.682;2024-03-02T03:37:00;11.43;;;8.13;;
11024;SDS011;22890;51.820;8.682;2024-03-02T03:39:28;11.43;;;8.53;;
11024;SDS011;22890;51.820;8.682;2024-03-02T03:41:54;12.07;;;8.57;;
11024;SDS011;22890;51.820;8.682;2024-03-02T03:44:21;12.53;;;8.47;;
11024;SDS011;22890;51.820;8.682;2024-03-02T03:46:48;14.10;;;9.30;;
11024;SDS011;22890;51.820;8.682;2024-03-02T03:49:15;11.10;;;8.73;;
11024;SDS011;22890;51.820;8.682;2024-03-02T03:51:42;13.93;;;8.77;;
11024;SDS011;22890;51.820;8.682;2024-03-02T03:54:09;12.57;;;8.93;;
11024;SDS011;22890;51.820;8.682;2024-03-02T03:56:37;14.50;;;9.70;;
11024;SDS011;22890;51.820;8.682;2024-03-02T03:59:04;14.13;;;8.77;;
11024;SDS011;22890;51.820;8.682;2024-03-02T04:01:31;15.73;;;9.77;;
11024;SDS011;22890;51.820;8.682;2024-03-02T04:03:58;13.80;;;9.37;;
11024;SDS011;22890;51.820;8.682;2024-03-02T04:06:25;16.43;;;9.57;;
11024;SDS011;22890;51.820;8.682;2024-03-02T04:08:52;14.93;;;9.47;;
11024;SDS011;22890;51.820;8.682;2024-03-02T04:11:19;15.23;;;9.50;;
11024;SDS011;22890;51.820;8.682;2024-03-02T04:13:45;13.90;;;9.40;;
11024;SDS011;22890;51.820;8.682;2024-03-02T04:16:12;14.13;;;8.97;;
11024;SDS011;22890;51.820;8.682;2024-03-02T04:18:39;14.93;;;10.07;;
11024;SDS011;22890;51.820;8.682;2024-03-02T04:21:06;14.37;;;10.20;;
11024;SDS011;22890;51.820;8.682;2024-03-02T04:23:32;15.90;;;9.67;;
11024;SDS011;22890;51.820;8.682;2024-03-02T04:25:59;16.53;;;10.13;;
11024;SDS011;22890;51.820;8.682;2024-03-02T04:28:26;15.07;;;8.63;;
11024;SDS011;22890;51.820;8.682;2024-03-02T04:30:53;15.37;;;9.33;;
11024;SDS011;22890;51.820;8.682;2024-03-02T04:33:20;13.10;;;9.17;;
11024;SDS011;22890;51.820;8.682;2024-03-02T04:35:46;15.47;;;10.67;;
11024;SDS011;22890;51.820;8.682;2024-03-02T04:38:13;16.07;;;9.93;;
11024;SDS011;22890;51.820;8.682;2024-03-02T04:40:40;14.27;;;9.37;;
11024;SDS011;22890;51.820;8.682;2024-03-02T04:43:07;13.97;;;10.07;;
11024;SDS011;22890;51.820;8.682;2024-03-02T04:45:37;14.40;;;9.40;;
11024;SDS011;22890;51.820;8.682;2024-03-02T04:48:05;15.53;;;9.83;;
11024;SDS011;22890;51.820;8.682;2024-03-02T04:50:32;15.47;;;10.57;;
11024;SDS011;22890;51.820;8.682;2024-03-02T04:52:58;14.17;;;9.73;;
11024;SDS011;22890;51.820;8.682;2024-03-02T04:55:25;17.83;;;10.97;;
11024;SDS011;22890;51.820;8.682;2024-03-02T04:57:55;17.97;;;10.33;;
11024;SDS011;22890;51.820;8.682;2024-03-02T05:00:22;15.17;;;9.37;;
11024;SDS011;22890;51.820;8.682;2024-03-02T05:02:49;17.83;;;10.77;;
11024;SDS011;22890;51.820;8.682;2024-03-02T05:05:17;14.77;;;9.50;;
11024;SDS011;22890;51.820;8.682;2024-03-02T05:07:44;16.07;;;10.30;;
11024;SDS011;22890;51.820;8.682;2024-03-02T05:10:11;14.60;;;9.43;;
11024;SDS011;22890;51.820;8.682;2024-03-02T05:12:38;16.03;;;10.30;;
11024;SDS011;22890;51.820;8.682;2024-03-02T05:15:12;16.87;;;9.60;;
11024;SDS011;22890;51.820;8.682;2024-03-02T05:17:40;14.40;;;9.63;;
11024;SDS011;22890;51.820;8.682;2024-03-02T05:20:11;12.73;;;9.30;;
11024;SDS011;22890;51.820;8.682;2024-03-02T05:22:37;17.87;;;10.37;;
11024;SDS011;22890;51.820;8.682;2024-03-02T05:25:06;16.83;;;10.23;;
11024;SDS011;22890;51.820;8.682;2024-03-02T05:27:33;18.47;;;11.13;;
11024;SDS011;22890;51.820;8.682;2024-03-02T05:30:00;13.73;;;9.33;;
11024;SDS011;22890;51.820;8.682;2024-03-02T05:32:27;14.27;;;10.03;;
11024;SDS011;22890;51.820;8.682;2024-03-02T05:34:54;14.10;;;9.17;;
11024;SDS011;22890;51.820;8.682;2024-03-02T05:37:21;14.43;;;9.40;;
11024;SDS011;22890;51.820;8.682;2024-03-02T05:39:48;13.77;;;9.20;;
11024;SDS011;22890;51.820;8.682;2024-03-02T05:42:14;17.10;;;10.57;;
11024;SDS011;22890;51.820;8.682;2024-03-02T05:44:43;15.07;;;10.33;;
11024;SDS011;22890;51.820;8.682;2024-03-02T05:47:10;15.30;;;10.37;;
11024;SDS011;22890;51.820;8.682;2024-03-02T05:49:36;16.00;;;10.23;;
11024;SDS011;22890;51.820;8.682;2024-03-02T05:52:03;16.80;;;9.97;;
11024;SDS011;22890;51.820;8.682;2024-03-02T05:54:30;18.20;;;10.40;;
11024;SDS011;22890;51.820;8.682;2024-03-02T05:56:57;13.30;;;9.30;;
11024;SDS011;22890;51.820;8.682;2024-03-02T05:59:42;17.60;;;11.10;;
11024;SDS011;22890;51.820;8.682;2024-03-02T06:02:10;15.90;;;10.60;;
11024;SDS011;22890;51.820;8.682;2024-03-02T06:04:36;16.50;;;11.20;;
11024;SDS011;22890;51.820;8.682;2024-03-02T06:07:03;17.33;;;11.27;;
11024;SDS011;22890;51.820;8.682;2024-03-02T06:09:30;15.47;;;9.83;;
11024;SDS011;22890;51.820;8.682;2024-03-02T06:11:57;15.17;;;10.00;;
11024;SDS011;22890;51.820;8.682;2024-03-02T06:14:24;20.30;;;10.97;;
11024;SDS011;22890;51.820;8.682;2024-03-02T06:16:51;18.70;;;10.90;;
11024;SDS011;22890;51.820;8.682;2024-03-02T06:19:17;17.90;;;11.00;;
11024;SDS011;22890;51.820;8.682;2024-03-02T06:21:44;15.70;;;9.53;;
11024;SDS011;22890;51.820;8.682;2024-03-02T06:24:11;17.73;;;11.40;;
11024;SDS011;22890;51.820;8.682;2024-03-02T06:26:37;20.27;;;10.90;;
11024;SDS011;22890;51.820;8.682;2024-03-02T06:29:05;19.80;;;9.33;;
11024;SDS011;22890;51.820;8.682;2024-03-02T06:31:33;15.33;;;10.20;;
11024;SDS011;22890;51.820;8.682;2024-03-02T06:34:01;17.13;;;11.33;;
11024;SDS011;22890;51.820;8.682;2024-03-02T06:36:29;16.13;;;9.43;;
11024;SDS011;22890;51.820;8.682;2024-03-02T06:38:56;16.90;;;10.47;;
11024;SDS011;22890;51.820;8.682;2024-03-02T06:41:23;16.53;;;10.50;;
11024;SDS011;22890;51.820;8.682;2024-03-02T06:43:50;18.30;;;10.80;;
11024;SDS011;22890;51.820;8.682;2024-03-02T06:46:20;19.47;;;10.73;;
11024;SDS011;22890;51.820;8.682;2024-03-02T06:48:47;21.73;;;11.23;;
11024;SDS011;22890;51.820;8.682;2024-03-02T06:51:14;16.00;;;10.67;;
11024;SDS011;22890;51.820;8.682;2024-03-02T06:53:42;20.83;;;10.83;;
11024;SDS011;22890;51.820;8.682;2024-03-02T06:56:09;16.83;;;10.20;;
11024;SDS011;22890;51.820;8.682;2024-03-02T06:58:36;14.73;;;9.47;;
11024;SDS011;22890;51.820;8.682;2024-03-02T07:01:03;17.20;;;9.87;;
11024;SDS011;22890;51.820;8.682;2024-03-02T07:03:31;17.83;;;10.97;;
11024;SDS011;22890;51.820;8.682;2024-03-02T07:05:59;17.33;;;10.67;;
11024;SDS011;22890;51.820;8.682;2024-03-02T07:08:26;16.90;;;10.93;;
11024;SDS011;22890;51.820;8.682;2024-03-02T07:10:53;18.17;;;10.67;;
11024;SDS011;22890;51.820;8.682;2024-03-02T07:13:20;20.20;;;10.40;;
11024;SDS011;22890;51.820;8.682;2024-03-02T07:15:47;17.60;;;10.53;;
11024;SDS011;22890;51.820;8.682;2024-03-02T07:18:31;16.93;;;10.90;;
11024;SDS011;22890;51.820;8.682;2024-03-02T07:20:59;22.73;;;12.47;;
11024;SDS011;22890;51.820;8.682;2024-03-02T07:23:27;18.60;;;10.57;;
11024;SDS011;22890;51.820;8.682;2024-03-02T07:25:54;16.53;;;10.73;;
11024;SDS011;22890;51.820;8.682;2024-03-02T07:28:25;16.93;;;11.13;;
11024;SDS011;22890;51.820;8.682;2024-03-02T07:30:59;19.17;;;12.20;;
11024;SDS011;22890;51.820;8.682;2024-03-02T07:33:26;17.63;;;11.63;;
11024;SDS011;22890;51.820;8.682;2024-03-02T07:35:54;17.00;;;10.67;;
11024;SDS011;22890;51.820;8.682;2024-03-02T07:38:22;20.50;;;11.83;;
11024;SDS011;22890;51.820;8.682;2024-03-02T07:40:49;15.10;;;9.80;;
11024;SDS011;22890;51.820;8.682;2024-03-02T07:43:19;17.63;;;10.87;;
11024;SDS011;22890;51.820;8.682;2024-03-02T07:45:46;16.67;;;10.40;;
11024;SDS011;22890;51.820;8.682;2024-03-02T07:48:14;17.77;;;10.80;;
11024;SDS011;22890;51.820;8.682;2024-03-02T07:50:41;16.40;;;11.27;;
11024;SDS011;22890;51.820;8.682;2024-03-02T07:53:09;18.37;;;10.67;;
11024;SDS011;22890;51.820;8.682;2024-03-02T07:55:36;21.57;;;10.67;;
11024;SDS011;22890;51.820;8.682;2024-03-02T07:58:02;18.80;;;11.07;;
11024;SDS011;22890;51.820;8.682;2024-03-02T08:00:29;17.23;;;11.13;;
11024;SDS011;22890;51.820;8.682;2024-03-02T08:02:56;18.37;;;11.60;;
11024;SDS011;22890;51.820;8.682;2024-03-02T08:05:23;18.77;;;12.10;;
11024;SDS011;22890;51.820;8.682;2024-03-02T08:07:50;19.07;;;11.17;;
11024;SDS011;22890;51.820;8.682;2024-03-02T08:10:19;18.60;;;11.37;;
11024;SDS011;22890;51.820;8.682;2024-03-02T08:12:46;16.50;;;10.93;;
11024;SDS011;22890;51.820;8.682;2024-03-02T08:15:13;18.63;;;11.73;;
11024;SDS011;22890;51.820;8.682;2024-03-02T08:17:40;17.67;;;10.90;;
11024;SDS011;22890;51.820;8.682;2024-03-02T08:20:11;18.63;;;11.33;;
11024;SDS011;22890;51.820;8.682;2024-03-02T08:22:38;19.30;;;10.63;;
11024;SDS011;22890;51.820;8.682;2024-03-02T08:25:05;19.80;;;11.00;;
11024;SDS011;22890;51.820;8.682;2024-03-02T08:27:34;21.37;;;12.10;;
11024;SDS011;22890;51.820;8.682;2024-03-02T08:30:01;17.33;;;11.90;;
11024;SDS011;22890;51.820;8.682;2024-03-02T08:32:29;20.77;;;12.70;;
11024;SDS011;22890;51.820;8.682;2024-03-02T08:34:56;19.10;;;12.23;;
11024;SDS011;22890;51.820;8.682;2024-03-02T08:37:24;19.20;;;11.83;;
11024;SDS011;22890;51.820;8.682;2024-03-02T08:39:50;15.70;;;10.43;;
11024;SDS011;22890;51.820;8.682;2024-03-02T08:42:17;17.13;;;11.30;;
11024;SDS011;22890;51.820;8.682;2024-03-02T08:44:44;17.30;;;11.23;;
11024;SDS011;22890;51.820;8.682;2024-03-02T08:47:10;16.03;;;10.23;;
11024;SDS011;22890;51.820;8.682;2024-03-02T08:49:37;18.83;;;11.17;;
11024;SDS011;22890;51.820;8.682;2024-03-02T08:52:04;15.90;;;10.50;;
11024;SDS011;22890;51.820;8.682;2024-03-02T08:54:31;16.23;;;10.57;;
11024;SDS011;22890;51.820;8.682;2024-03-02T08:57:00;15.30;;;10.03;;
11024;SDS011;22890;51.820;8.682;2024-03-02T08:59:26;16.70;;;10.23;;
11024;SDS011;22890;51.820;8.682;2024-03-02T09:01:54;17.07;;;10.73;;
11024;SDS011;22890;51.820;8.682;2024-03-02T09:04:20;15.87;;;9.97;;
11024;SDS011;22890;51.820;8.682;2024-03-02T09:06:52;15.23;;;10.40;;
11024;SDS011;22890;51.820;8.682;2024-03-02T09:09:19;16.17;;;9.57;;
11024;SDS011;22890;51.820;8.682;2024-03-02T09:11:46;14.50;;;9.00;;
11024;SDS011;22890;51.820;8.682;2024-03-02T09:14:13;14.93;;;9.70;;
11024;SDS011;22890;51.820;8.682;2024-03-02T09:16:41;13.67;;;9.30;;
11024;SDS011;22890;51.820;8.682;2024-03-02T09:19:08;13.90;;;9.57;;
11024;SDS011;22890;51.820;8.682;2024-03-02T09:21:36;12.57;;;8.83;;
11024;SDS011;22890;51.820;8.682;2024-03-02T09:24:03;18.10;;;9.63;;
11024;SDS011;22890;51.820;8.682;2024-03-02T09:26:30;13.73;;;9.17;;
11024;SDS011;22890;51.820;8.682;2024-03-02T09:28:57;14.33;;;9.57;;
11024;SDS011;22890;51.820;8.682;2024-03-02T09:31:24;13.67;;;8.47;;
11024;SDS011;22890;51.820;8.682;2024-03-02T09:33:51;11.93;;;8.27;;
11024;SDS011;22890;51.820;8.682;2024-03-02T09:36:18;13.10;;;8.87;;
11024;SDS011;22890;51.820;8.682;2024-03-02T09:38:49;13.90;;;8.80;;
11024;SDS011;22890;51.820;8.682;2024-03-02T09:41:16;12.57;;;8.37;;
11024;SDS011;22890;51.820;8.682;2024-03-02T09:43:43;11.67;;;8.40;;
11024;SDS011;22890;51.820;8.682;2024-03-02T09:46:09;11.60;;;8.33;;
11024;SDS011;22890;51.820;8.682;2024-03-02T09:48:37;10.30;;;7.77;;
11024;SDS011;22890;51.820;8.682;2024-03-02T09:51:04;13.00;;;8.13;;
11024;SDS011;22890;51.820;8.682;2024-03-02T09:53:32;11.27;;;8.57;;
11024;SDS011;22890;51.820;8.682;2024-03-02T09:56:00;11.23;;;8.60;;
11024;SDS011;22890;51.820;8.682;2024-03-02T09:58:27;12.07;;;8.77;;
11024;SDS011;22890;51.820;8.682;2024-03-02T10:00:54;10.40;;;7.50;;
11024;SDS011;22890;51.820;8.682;2024-03-02T10:03:21;10.60;;;8.00;;
11024;SDS011;22890;51.820;8.682;2024-03-02T10:05:49;11.17;;;7.90;;
11024;SDS011;22890;51.820;8.682;2024-03-02T10:08:16;11.50;;;8.37;;
11024;SDS011;22890;51.820;8.682;2024-03-02T10:10:43;13.60;;;7.80;;
11024;SDS011;22890;51.820;8.682;2024-03-02T10:13:10;10.90;;;7.63;;
11024;SDS011;22890;51.820;8.682;2024-03-02T10:15:39;8.93;;;6.93;;
11024;SDS011;22890;51.820;8.682;2024-03-02T10:18:10;10.23;;;7.40;;
11024;SDS011;22890;51.820;8.682;2024-03-02T10:20:39;10.57;;;8.13;;
11024;SDS011;22890;51.820;8.682;2024-03-02T10:23:10;9.97;;;7.33;;
11024;SDS011;22890;51.820;8.682;2024-03-02T10:25:39;7.83;;;6.53;;
11024;SDS011;22890;51.820;8.682;2024-03-02T10:28:20;13.87;;;6.80;;
11024;SDS011;22890;51.820;8.682;2024-03-02T10:30:47;8.27;;;6.47;;
11024;SDS011;22890;51.820;8.682;2024-03-02T10:33:17;9.40;;;7.07;;
11024;SDS011;22890;51.820;8.682;2024-03-02T10:35:43;9.00;;;6.60;;
11024;SDS011;22890;51.820;8.682;2024-03-02T10:38:10;9.97;;;7.20;;
11024;SDS011;22890;51.820;8.682;2024-03-02T10:40:37;9.20;;;7.20;;
11024;SDS011;22890;51.820;8.682;2024-03-02T10:43:04;9.97;;;6.20;;
11024;SDS011;22890;51.820;8.682;2024-03-02T10:45:32;11.27;;;7.37;;
11024;SDS011;22890;51.820;8.682;2024-03-02T10:47:59;8.67;;;6.70;;
11024;SDS011;22890;51.820;8.682;2024-03-02T10:50:28;10.33;;;7.33;;
11024;SDS011;22890;51.820;8.682;2024-03-02T10:52:56;8.40;;;6.27;;
11024;SDS011;22890;51.820;8.682;2024-03-02T10:55:24;7.63;;;6.43;;
11024;SDS011;22890;51.820;8.682;2024-03-02T10:57:51;8.73;;;6.90;;
11024;SDS011;22890;51.820;8.682;2024-03-02T11:00:26;7.77;;;5.93;;
11024;SDS011;22890;51.820;8.682;2024-03-02T11:03:06;7.97;;;6.47;;
11024;SDS011;22890;51.820;8.682;2024-03-02T11:05:36;9.03;;;6.70;;
11024;SDS011;22890;51.820;8.682;2024-03-02T11:08:07;7.80;;;5.90;;
11024;SDS011;22890;51.820;8.682;2024-03-02T11:10:37;7.60;;;6.03;;
11024;SDS011;22890;51.820;8.682;2024-03-02T11:13:09;7.60;;;5.60;;
11024;SDS011;22890;51.820;8.682;2024-03-02T11:15:37;9.77;;;6.13;;
11024;SDS011;22890;51.820;8.682;2024-03-02T11:18:08;6.43;;;5.30;;
11024;SDS011;22890;51.820;8.682;2024-03-02T11:20:39;6.77;;;4.90;;
11024;SDS011;22890;51.820;8.682;2024-03-02T11:23:07;7.37;;;5.60;;
11024;SDS011;22890;51.820;8.682;2024-03-02T11:25:35;6.43;;;5.60;;
11024;SDS011;22890;51.820;8.682;2024-03-02T11:28:03;5.90;;;5.17;;
11024;SDS011;22890;51.820;8.682;2024-03-02T11:33:05;5.70;;;4.40;;
11024;SDS011;22890;51.820;8.682;2024-03-02T11:35:42;5.03;;;4.43;;
11024;SDS011;22890;51.820;8.682;2024-03-02T11:38:11;4.63;;;4.13;;
11024;SDS011;22890;51.820;8.682;2024-03-02T11:40:41;5.83;;;4.27;;
11024;SDS011;22890;51.820;8.682;2024-03-02T11:43:09;5.80;;;4.17;;
11024;SDS011;22890;51.820;8.682;2024-03-02T11:45:37;6.03;;;4.47;;
11024;SDS011;22890;51.820;8.682;2024-03-02T11:48:11;4.80;;;4.40;;
11024;SDS011;22890;51.820;8.682;2024-03-02T11:50:41;5.53;;;4.03;;
11024;SDS011;22890;51.820;8.682;2024-03-02T11:53:15;7.20;;;4.30;;
11024;SDS011;22890;51.820;8.682;2024-03-02T11:55:43;6.53;;;4.40;;
11024;SDS011;22890;51.820;8.682;2024-03-02T11:58:14;4.63;;;4.13;;
11024;SDS011;22890;51.820;8.682;2024-03-02T12:00:47;5.70;;;4.47;;
11024;SDS011;22890;51.820;8.682;2024-03-02T12:03:17;4.87;;;4.33;;
11024;SDS011;22890;51.820;8.682;2024-03-02T12:05:49;5.20;;;4.70;;
11024;SDS011;22890;51.820;8.682;2024-03-02T12:08:16;5.63;;;4.10;;
11024;SDS011;22890;51.820;8.682;2024-03-02T12:10:43;5.70;;;4.00;;
11024;SDS011;22890;51.820;8.682;2024-03-02T12:13:26;5.37;;;4.00;;
11024;SDS011;22890;51.820;8.682;2024-03-02T12:15:54;5.43;;;3.30;;
11024;SDS011;22890;51.820;8.682;2024-03-02T12:18:22;4.70;;;3.53;;
11024;SDS011;22890;51.820;8.682;2024-03-02T12:20:49;4.23;;;3.77;;
11024;SDS011;22890;51.820;8.682;2024-03-02T12:23:23;4.20;;;3.60;;
11024;SDS011;22890;51.820;8.682;2024-03-02T12:25:50;4.97;;;3.23;;
11024;SDS011;22890;51.820;8.682;2024-03-02T12:28:17;5.17;;;3.43;;
11024;SDS011;22890;51.820;8.682;2024-03-02T12:30:44;3.67;;;3.27;;
11024;SDS011;22890;51.820;8.682;2024-03-02T12:33:11;4.20;;;3.77;;
11024;SDS011;22890;51.820;8.682;2024-03-02T12:35:38;6.57;;;3.30;;
11024;SDS011;22890;51.820;8.682;2024-03-02T12:38:07;3.33;;;2.70;;
11024;SDS011;22890;51.820;8.682;2024-03-02T12:40:34;4.07;;;3.20;;
11024;SDS011;22890;51.820;8.682;2024-03-02T12:43:05;4.03;;;3.10;;
11024;SDS011;22890;51.820;8.682;2024-03-02T12:45:32;3.27;;;2.67;;
11024;SDS011;22890;51.820;8.682;2024-03-02T12:48:00;3.10;;;2.80;;
11024;SDS011;22890;51.820;8.682;2024-03-02T12:50:28;3.00;;;2.70;;
11024;SDS011;22890;51.820;8.682;2024-03-02T12:52:55;2.90;;;2.53;;
11024;SDS011;22890;51.820;8.682;2024-03-02T12:55:22;3.17;;;2.80;;
11024;SDS011;22890;51.820;8.682;2024-03-02T12:57:50;3.80;;;3.10;;
11024;SDS011;22890;51.820;8.682;2024-03-02T13:00:18;3.10;;;2.80;;
11024;SDS011;22890;51.820;8.682;2024-03-02T13:02:46;3.57;;;3.07;;
11024;SDS011;22890;51.820;8.682;2024-03-02T13:05:14;2.63;;;2.43;;
11024;SDS011;22890;51.820;8.682;2024-03-02T13:07:41;3.93;;;2.77;;
11024;SDS011;22890;51.820;8.682;2024-03-02T13:10:08;4.83;;;2.80;;
11024;SDS011;22890;51.820;8.682;2024-03-02T13:12:36;4.27;;;2.60;;
11024;SDS011;22890;51.820;8.682;2024-03-02T13:15:04;2.83;;;1.93;;
11024;SDS011;22890;51.820;8.682;2024-03-02T13:17:34;2.23;;;2.03;;
11024;SDS011;22890;51.820;8.682;2024-03-02T13:20:04;2.60;;;2.40;;
11024;SDS011;22890;51.820;8.682;2024-03-02T13:22:34;2.53;;;2.33;;
11024;SDS011;22890;51.820;8.682;2024-03-02T13:25:01;3.03;;;2.30;;
11024;SDS011;22890;51.820;8.682;2024-03-02T13:27:31;2.90;;;2.60;;
11024;SDS011;22890;51.820;8.682;2024-03-02T13:30:02;4.50;;;2.73;;
11024;SDS011;22890;51.820;8.682;2024-03-02T13:32:29;3.00;;;2.43;;
11024;SDS011;22890;51.820;8.682;2024-03-02T13:34:56;2.30;;;2.10;;
11024;SDS011;22890;51.820;8.682;2024-03-02T13:37:23;3.03;;;2.30;;
11024;SDS011;22890;51.820;8.682;2024-03-02T13:39:49;3.30;;;2.10;;
11024;SDS011;22890;51.820;8.682;2024-03-02T13:42:16;4.00;;;2.10;;
11024;SDS011;22890;51.820;8.682;2024-03-02T13:44:43;2.50;;;2.30;;
11024;SDS011;22890;51.820;8.682;2024-03-02T13:47:15;2.80;;;2.43;;
11024;SDS011;22890;51.820;8.682;2024-03-02T13:49:43;2.60;;;1.87;;
11024;SDS011;22890;51.820;8.682;2024-03-02T13:52:12;2.73;;;2.47;;
11024;SDS011;22890;51.820;8.682;2024-03-02T13:54:46;2.63;;;2.10;;
11024;SDS011;22890;51.820;8.682;2024-03-02T13:57:13;2.37;;;2.10;;
11024;SDS011;22890;51.820;8.682;2024-03-02T13:59:41;3.60;;;2.07;;
11024;SDS011;22890;51.820;8.682;2024-03-02T14:02:09;2.27;;;1.70;;
11024;SDS011;22890;51.820;8.682;2024-03-02T14:04:37;2.20;;;2.00;;
11024;SDS011;22890;51.820;8.682;2024-03-02T14:07:05;1.90;;;1.80;;
11024;SDS011;22890;51.820;8.682;2024-03-02T14:09:37;2.40;;;2.10;;
11024;SDS011;22890;51.820;8.682;2024-03-02T14:12:04;4.00;;;1.77;;
11024;SDS011;22890;51.820;8.682;2024-03-02T14:14:31;2.07;;;1.73;;
11024;SDS011;22890;51.820;8.682;2024-03-02T14:16:58;2.60;;;1.80;;
11024;SDS011;22890;51.820;8.682;2024-03-02T14:19:29;2.50;;;1.53;;
11024;SDS011;22890;51.820;8.682;2024-03-02T14:21:56;2.30;;;2.10;;
11024;SDS011;22890;51.820;8.682;2024-03-02T14:24:23;1.70;;;1.50;;
11024;SDS011;22890;51.820;8.682;2024-03-02T14:26:52;1.77;;;1.53;;
11024;SDS011;22890;51.820;8.682;2024-03-02T14:29:28;2.00;;;1.77;;
11024;SDS011;22890;51.820;8.682;2024-03-02T14:31:55;1.57;;;1.47;;
11024;SDS011;22890;51.820;8.682;2024-03-02T14:34:22;2.60;;;1.27;;
11024;SDS011;22890;51.820;8.682;2024-03-02T14:36:49;2.20;;;1.63;;
11024;SDS011;22890;51.820;8.682;2024-03-02T14:39:15;1.83;;;1.30;;
11024;SDS011;22890;51.820;8.682;2024-03-02T14:41:42;2.10;;;1.70;;
11024;SDS011;22890;51.820;8.682;2024-03-02T14:44:09;2.83;;;1.67;;
11024;SDS011;22890;51.820;8.682;2024-03-02T14:46:36;1.83;;;1.50;;
11024;SDS011;22890;51.820;8.682;2024-03-02T14:49:02;2.97;;;1.87;;
11024;SDS011;22890;51.820;8.682;2024-03-02T14:51:30;2.73;;;1.57;;
11024;SDS011;22890;51.820;8.682;2024-03-02T14:53:57;2.10;;;1.50;;
11024;SDS011;22890;51.820;8.682;2024-03-02T14:56:23;1.60;;;1.40;;